sensor_id;sensor_type;location;lat;lon;timestamp;temperature;humidity
20866;DHT22;10593;48.398;10.698;2022-10-30T00:00:50;16.80;57.10
20866;DHT22;10593;48.398;10.698;2022-10-30T00:03:17;16.80;57.20
20866;DHT22;10593;48.398;10.698;2022-10-30T00:05:47;16.80;57.30
20866;DHT22;10593;48.398;10.698;2022-10-30T00:08:16;16.70;57.20
20866;DHT22;10593;48.398;10.698;2022-10-30T00:10:44;16.70;57.30
20866;DHT22;10593;48.398;10.698;2022-10-30T00:13:11;16.70;57.30
20866;DHT22;10593;48.398;10.698;2022-10-30T00:15:38;16.70;57.30
20866;DHT22;10593;48.398;10.698;2022-10-30T00:18:05;16.70;57.30
20866;DHT22;10593;48.398;10.698;2022-10-30T00:20:31;16.70;57.20
20866;DHT22;10593;48.398;10.698;2022-10-30T00:22:57;16.70;57.30
20866;DHT22;10593;48.398;10.698;2022-10-30T00:25:22;16.70;57.30
20866;DHT22;10593;48.398;10.698;2022-10-30T00:27:48;16.60;57.20
20866;DHT22;10593;48.398;10.698;2022-10-30T00:30:14;16.70;57.40
20866;DHT22;10593;48.398;10.698;2022-10-30T00:32:41;16.70;57.30
20866;DHT22;10593;48.398;10.698;2022-10-30T00:35:08;16.60;57.20
20866;DHT22;10593;48.398;10.698;2022-10-30T00:37:34;16.60;57.20
20866;DHT22;10593;48.398;10.698;2022-10-30T00:40:00;16.60;57.00
20866;DHT22;10593;48.398;10.698;2022-10-30T00:42:30;16.60;56.80
20866;DHT22;10593;48.398;10.698;2022-10-30T00:44:56;16.60;56.70
20866;DHT22;10593;48.398;10.698;2022-10-30T00:47:35;16.60;56.50
20866;DHT22;10593;48.398;10.698;2022-10-30T00:50:37;16.50;56.30
20866;DHT22;10593;48.398;10.698;2022-10-30T00:53:12;16.50;56.10
20866;DHT22;10593;48.398;10.698;2022-10-30T00:55:46;16.50;56.10
20866;DHT22;10593;48.398;10.698;2022-10-30T00:58:22;16.40;56.10
20866;DHT22;10593;48.398;10.698;2022-10-30T01:00:55;16.40;56.10
20866;DHT22;10593;48.398;10.698;2022-10-30T01:03:25;16.40;56.20
20866;DHT22;10593;48.398;10.698;2022-10-30T01:05:56;16.40;56.80
20866;DHT22;10593;48.398;10.698;2022-10-30T01:08:25;16.40;56.40
20866;DHT22;10593;48.398;10.698;2022-10-30T01:10:51;16.40;56.60
20866;DHT22;10593;48.398;10.698;2022-10-30T01:13:19;16.30;56.50
20866;DHT22;10593;48.398;10.698;2022-10-30T01:30:03;16.30;56.40
20866;DHT22;10593;48.398;10.698;2022-10-30T01:36:13;16.20;56.30
20866;DHT22;10593;48.398;10.698;2022-10-30T01:38:55;16.20;56.40
20866;DHT22;10593;48.398;10.698;2022-10-30T01:41:24;16.20;56.40
20866;DHT22;10593;48.398;10.698;2022-10-30T01:43:54;16.20;56.30
20866;DHT22;10593;48.398;10.698;2022-10-30T01:46:38;16.20;56.20
20866;DHT22;10593;48.398;10.698;2022-10-30T01:52:16;16.10;56.00
20866;DHT22;10593;48.398;10.698;2022-10-30T01:55:17;16.10;56.00
20866;DHT22;10593;48.398;10.698;2022-10-30T01:58:20;16.10;56.00
20866;DHT22;10593;48.398;10.698;2022-10-30T02:00:54;16.10;56.10
20866;DHT22;10593;48.398;10.698;2022-10-30T02:03:23;16.00;56.00
20866;DHT22;10593;48.398;10.698;2022-10-30T02:05:52;16.00;56.00
20866;DHT22;10593;48.398;10.698;2022-10-30T02:08:19;16.00;56.10
20866;DHT22;10593;48.398;10.698;2022-10-30T02:10:47;16.00;56.10
20866;DHT22;10593;48.398;10.698;2022-10-30T02:13:15;16.00;56.10
20866;DHT22;10593;48.398;10.698;2022-10-30T02:15:42;16.00;56.10
20866;DHT22;10593;48.398;10.698;2022-10-30T02:18:10;15.90;56.10
20866;DHT22;10593;48.398;10.698;2022-10-30T02:20:36;15.90;56.10
20866;DHT22;10593;48.398;10.698;2022-10-30T02:23:03;15.90;56.20
20866;DHT22;10593;48.398;10.698;2022-10-30T02:25:28;15.90;56.20
20866;DHT22;10593;48.398;10.698;2022-10-30T02:27:54;15.80;56.10
20866;DHT22;10593;48.398;10.698;2022-10-30T02:30:20;15.90;56.30
20866;DHT22;10593;48.398;10.698;2022-10-30T02:32:45;15.90;56.40
20866;DHT22;10593;48.398;10.698;2022-10-30T02:35:11;15.90;56.60
20866;DHT22;10593;48.398;10.698;2022-10-30T02:37:37;15.90;56.70
20866;DHT22;10593;48.398;10.698;2022-10-30T02:40:05;15.80;56.70
20866;DHT22;10593;48.398;10.698;2022-10-30T02:42:35;15.80;56.80
20866;DHT22;10593;48.398;10.698;2022-10-30T02:45:00;15.80;56.90
20866;DHT22;10593;48.398;10.698;2022-10-30T02:47:28;15.80;57.10
20866;DHT22;10593;48.398;10.698;2022-10-30T02:49:53;15.80;57.80
20866;DHT22;10593;48.398;10.698;2022-10-30T02:52:19;15.80;57.20
20866;DHT22;10593;48.398;10.698;2022-10-30T02:54:44;15.80;57.30
20866;DHT22;10593;48.398;10.698;2022-10-30T02:57:10;15.80;57.50
20866;DHT22;10593;48.398;10.698;2022-10-30T02:59:36;15.80;57.70
20866;DHT22;10593;48.398;10.698;2022-10-30T03:02:01;15.80;57.60
20866;DHT22;10593;48.398;10.698;2022-10-30T03:04:27;15.80;57.70
20866;DHT22;10593;48.398;10.698;2022-10-30T03:06:53;15.80;57.70
20866;DHT22;10593;48.398;10.698;2022-10-30T03:09:18;15.70;57.50
20866;DHT22;10593;48.398;10.698;2022-10-30T03:11:44;15.80;57.30
20866;DHT22;10593;48.398;10.698;2022-10-30T03:14:10;15.80;57.20
20866;DHT22;10593;48.398;10.698;2022-10-30T03:16:36;15.70;56.80
20866;DHT22;10593;48.398;10.698;2022-10-30T03:19:02;15.70;56.60
20866;DHT22;10593;48.398;10.698;2022-10-30T03:21:28;15.80;56.50
20866;DHT22;10593;48.398;10.698;2022-10-30T03:23:54;15.70;56.30
20866;DHT22;10593;48.398;10.698;2022-10-30T03:26:21;15.70;56.20
20866;DHT22;10593;48.398;10.698;2022-10-30T03:28:47;15.70;56.40
20866;DHT22;10593;48.398;10.698;2022-10-30T03:31:17;15.60;56.30
20866;DHT22;10593;48.398;10.698;2022-10-30T03:33:43;15.70;56.40
20866;DHT22;10593;48.398;10.698;2022-10-30T03:36:11;15.70;56.30
20866;DHT22;10593;48.398;10.698;2022-10-30T03:38:38;15.70;56.10
20866;DHT22;10593;48.398;10.698;2022-10-30T03:41:05;15.60;55.90
20866;DHT22;10593;48.398;10.698;2022-10-30T03:43:32;15.60;55.90
20866;DHT22;10593;48.398;10.698;2022-10-30T03:45:58;15.60;55.90
20866;DHT22;10593;48.398;10.698;2022-10-30T03:48:25;15.60;55.80
20866;DHT22;10593;48.398;10.698;2022-10-30T03:50:53;15.60;55.70
20866;DHT22;10593;48.398;10.698;2022-10-30T03:53:20;15.50;55.60
20866;DHT22;10593;48.398;10.698;2022-10-30T03:55:48;15.50;55.50
20866;DHT22;10593;48.398;10.698;2022-10-30T03:58:14;15.50;55.50
20866;DHT22;10593;48.398;10.698;2022-10-30T04:00:40;15.50;55.40
20866;DHT22;10593;48.398;10.698;2022-10-30T04:03:07;15.50;55.40
20866;DHT22;10593;48.398;10.698;2022-10-30T04:05:34;15.50;55.30
20866;DHT22;10593;48.398;10.698;2022-10-30T04:08:04;15.40;55.10
20866;DHT22;10593;48.398;10.698;2022-10-30T04:10:32;15.40;55.10
20866;DHT22;10593;48.398;10.698;2022-10-30T04:13:05;15.40;55.10
20866;DHT22;10593;48.398;10.698;2022-10-30T04:15:32;15.40;55.10
20866;DHT22;10593;48.398;10.698;2022-10-30T04:17:58;15.30;55.10
20866;DHT22;10593;48.398;10.698;2022-10-30T04:20:25;15.30;55.10
20866;DHT22;10593;48.398;10.698;2022-10-30T04:22:56;15.30;55.20
20866;DHT22;10593;48.398;10.698;2022-10-30T04:25:23;15.30;55.40
20866;DHT22;10593;48.398;10.698;2022-10-30T04:27:49;15.30;55.50
20866;DHT22;10593;48.398;10.698;2022-10-30T04:30:17;15.20;55.60
20866;DHT22;10593;48.398;10.698;2022-10-30T04:32:48;15.20;55.60
20866;DHT22;10593;48.398;10.698;2022-10-30T04:35:20;15.20;55.60
20866;DHT22;10593;48.398;10.698;2022-10-30T04:38:01;15.20;55.60
20866;DHT22;10593;48.398;10.698;2022-10-30T04:40:31;15.20;55.60
20866;DHT22;10593;48.398;10.698;2022-10-30T04:42:58;15.20;55.60
20866;DHT22;10593;48.398;10.698;2022-10-30T04:45:24;15.20;55.60
20866;DHT22;10593;48.398;10.698;2022-10-30T04:47:51;15.20;55.60
20866;DHT22;10593;48.398;10.698;2022-10-30T04:50:17;15.20;55.60
20866;DHT22;10593;48.398;10.698;2022-10-30T04:52:43;15.20;55.50
20866;DHT22;10593;48.398;10.698;2022-10-30T04:55:10;15.10;55.30
20866;DHT22;10593;48.398;10.698;2022-10-30T04:57:36;15.10;55.20
20866;DHT22;10593;48.398;10.698;2022-10-30T05:00:07;15.10;55.00
20866;DHT22;10593;48.398;10.698;2022-10-30T05:02:36;15.10;54.90
20866;DHT22;10593;48.398;10.698;2022-10-30T05:05:02;15.10;54.80
20866;DHT22;10593;48.398;10.698;2022-10-30T05:07:28;15.10;54.80
20866;DHT22;10593;48.398;10.698;2022-10-30T05:09:54;15.10;54.80
20866;DHT22;10593;48.398;10.698;2022-10-30T05:12:20;15.00;54.80
20866;DHT22;10593;48.398;10.698;2022-10-30T05:14:46;15.00;54.80
20866;DHT22;10593;48.398;10.698;2022-10-30T05:17:12;15.00;54.90
20866;DHT22;10593;48.398;10.698;2022-10-30T05:19:38;15.00;54.90
20866;DHT22;10593;48.398;10.698;2022-10-30T05:22:03;15.00;54.90
20866;DHT22;10593;48.398;10.698;2022-10-30T05:24:29;15.00;55.00
20866;DHT22;10593;48.398;10.698;2022-10-30T05:26:55;15.00;54.90
20866;DHT22;10593;48.398;10.698;2022-10-30T05:29:20;14.90;54.90
20866;DHT22;10593;48.398;10.698;2022-10-30T05:31:46;14.90;54.90
20866;DHT22;10593;48.398;10.698;2022-10-30T05:34:11;14.90;54.90
20866;DHT22;10593;48.398;10.698;2022-10-30T05:36:37;14.90;54.90
20866;DHT22;10593;48.398;10.698;2022-10-30T05:39:03;14.90;54.90
20866;DHT22;10593;48.398;10.698;2022-10-30T05:41:29;14.80;54.80
20866;DHT22;10593;48.398;10.698;2022-10-30T05:43:54;14.80;54.80
20866;DHT22;10593;48.398;10.698;2022-10-30T05:46:20;14.80;54.70
20866;DHT22;10593;48.398;10.698;2022-10-30T05:48:46;14.80;54.80
20866;DHT22;10593;48.398;10.698;2022-10-30T05:51:11;14.80;54.80
20866;DHT22;10593;48.398;10.698;2022-10-30T05:53:37;14.80;54.80
20866;DHT22;10593;48.398;10.698;2022-10-30T05:56:03;14.80;54.80
20866;DHT22;10593;48.398;10.698;2022-10-30T05:58:29;14.70;54.60
20866;DHT22;10593;48.398;10.698;2022-10-30T06:00:54;14.70;54.60
20866;DHT22;10593;48.398;10.698;2022-10-30T06:03:20;14.70;54.60
20866;DHT22;10593;48.398;10.698;2022-10-30T06:05:46;14.70;54.70
20866;DHT22;10593;48.398;10.698;2022-10-30T06:08:12;14.70;54.80
20866;DHT22;10593;48.398;10.698;2022-10-30T06:10:40;14.70;54.90
20866;DHT22;10593;48.398;10.698;2022-10-30T06:13:06;14.70;55.00
20866;DHT22;10593;48.398;10.698;2022-10-30T06:15:32;14.70;55.10
20866;DHT22;10593;48.398;10.698;2022-10-30T06:17:59;14.60;55.10
20866;DHT22;10593;48.398;10.698;2022-10-30T06:20:27;14.60;55.10
20866;DHT22;10593;48.398;10.698;2022-10-30T06:23:05;14.70;55.20
20866;DHT22;10593;48.398;10.698;2022-10-30T06:25:33;14.60;55.20
20866;DHT22;10593;48.398;10.698;2022-10-30T06:28:00;14.60;55.30
20866;DHT22;10593;48.398;10.698;2022-10-30T06:30:26;14.60;55.40
20866;DHT22;10593;48.398;10.698;2022-10-30T06:32:57;14.60;55.60
20866;DHT22;10593;48.398;10.698;2022-10-30T06:35:23;14.60;55.70
20866;DHT22;10593;48.398;10.698;2022-10-30T06:37:49;14.60;55.80
20866;DHT22;10593;48.398;10.698;2022-10-30T06:40:16;14.60;56.00
20866;DHT22;10593;48.398;10.698;2022-10-30T06:42:45;14.60;56.10
20866;DHT22;10593;48.398;10.698;2022-10-30T06:45:14;14.60;56.20
20866;DHT22;10593;48.398;10.698;2022-10-30T06:47:41;14.60;56.20
20866;DHT22;10593;48.398;10.698;2022-10-30T06:50:09;14.60;56.20
20866;DHT22;10593;48.398;10.698;2022-10-30T06:52:37;14.60;56.20
20866;DHT22;10593;48.398;10.698;2022-10-30T06:55:04;14.60;56.10
20866;DHT22;10593;48.398;10.698;2022-10-30T06:57:30;14.60;56.00
20866;DHT22;10593;48.398;10.698;2022-10-30T06:59:56;14.60;56.00
20866;DHT22;10593;48.398;10.698;2022-10-30T07:02:22;14.60;56.00
20866;DHT22;10593;48.398;10.698;2022-10-30T07:04:48;14.60;56.10
20866;DHT22;10593;48.398;10.698;2022-10-30T07:07:14;14.60;56.00
20866;DHT22;10593;48.398;10.698;2022-10-30T07:09:40;14.60;56.10
20866;DHT22;10593;48.398;10.698;2022-10-30T07:12:07;14.60;56.10
20866;DHT22;10593;48.398;10.698;2022-10-30T07:14:33;14.60;56.10
20866;DHT22;10593;48.398;10.698;2022-10-30T07:16:59;14.70;56.30
20866;DHT22;10593;48.398;10.698;2022-10-30T07:19:25;14.60;56.20
20866;DHT22;10593;48.398;10.698;2022-10-30T07:21:51;14.70;56.30
20866;DHT22;10593;48.398;10.698;2022-10-30T07:24:17;14.70;56.30
20866;DHT22;10593;48.398;10.698;2022-10-30T07:26:43;14.70;56.30
20866;DHT22;10593;48.398;10.698;2022-10-30T07:29:08;14.70;56.40
20866;DHT22;10593;48.398;10.698;2022-10-30T07:31:34;14.70;56.50
20866;DHT22;10593;48.398;10.698;2022-10-30T07:34:00;14.70;56.60
20866;DHT22;10593;48.398;10.698;2022-10-30T07:36:25;14.80;56.80
20866;DHT22;10593;48.398;10.698;2022-10-30T07:38:51;14.70;56.70
20866;DHT22;10593;48.398;10.698;2022-10-30T07:41:18;14.80;56.80
20866;DHT22;10593;48.398;10.698;2022-10-30T07:43:45;14.80;56.90
20866;DHT22;10593;48.398;10.698;2022-10-30T07:46:11;14.80;56.90
20866;DHT22;10593;48.398;10.698;2022-10-30T07:48:37;14.80;57.00
20866;DHT22;10593;48.398;10.698;2022-10-30T07:51:03;14.90;57.10
20866;DHT22;10593;48.398;10.698;2022-10-30T07:53:29;14.90;57.20
20866;DHT22;10593;48.398;10.698;2022-10-30T07:55:56;14.90;57.20
20866;DHT22;10593;48.398;10.698;2022-10-30T07:58:22;14.90;57.40
20866;DHT22;10593;48.398;10.698;2022-10-30T08:00:48;15.00;57.60
20866;DHT22;10593;48.398;10.698;2022-10-30T08:03:14;15.00;57.60
20866;DHT22;10593;48.398;10.698;2022-10-30T08:05:39;15.00;57.80
20866;DHT22;10593;48.398;10.698;2022-10-30T08:08:06;15.00;58.00
20866;DHT22;10593;48.398;10.698;2022-10-30T08:10:33;15.00;58.60
20866;DHT22;10593;48.398;10.698;2022-10-30T08:12:59;15.10;58.80
20866;DHT22;10593;48.398;10.698;2022-10-30T08:15:25;15.10;59.30
20866;DHT22;10593;48.398;10.698;2022-10-30T08:17:51;15.10;59.60
20866;DHT22;10593;48.398;10.698;2022-10-30T08:20:21;15.20;60.00
20866;DHT22;10593;48.398;10.698;2022-10-30T08:22:49;15.20;60.30
20866;DHT22;10593;48.398;10.698;2022-10-30T08:25:18;15.20;60.40
20866;DHT22;10593;48.398;10.698;2022-10-30T08:28:05;15.30;60.70
20866;DHT22;10593;48.398;10.698;2022-10-30T08:30:34;15.30;60.90
20866;DHT22;10593;48.398;10.698;2022-10-30T08:33:02;15.30;60.70
20866;DHT22;10593;48.398;10.698;2022-10-30T08:35:30;15.30;60.80
20866;DHT22;10593;48.398;10.698;2022-10-30T08:37:57;15.40;61.10
20866;DHT22;10593;48.398;10.698;2022-10-30T08:40:25;15.40;61.10
20866;DHT22;10593;48.398;10.698;2022-10-30T08:42:56;15.50;61.60
20866;DHT22;10593;48.398;10.698;2022-10-30T08:45:23;15.50;61.60
20866;DHT22;10593;48.398;10.698;2022-10-30T08:48:00;15.50;61.60
20866;DHT22;10593;48.398;10.698;2022-10-30T08:50:29;15.60;62.30
20866;DHT22;10593;48.398;10.698;2022-10-30T08:52:58;15.50;61.80
20866;DHT22;10593;48.398;10.698;2022-10-30T08:55:25;15.60;62.10
20866;DHT22;10593;48.398;10.698;2022-10-30T08:57:50;15.60;62.30
20866;DHT22;10593;48.398;10.698;2022-10-30T09:00:16;15.70;62.50
20866;DHT22;10593;48.398;10.698;2022-10-30T09:02:42;15.70;62.70
20866;DHT22;10593;48.398;10.698;2022-10-30T09:05:08;15.70;62.80
20866;DHT22;10593;48.398;10.698;2022-10-30T09:07:34;15.80;62.90
20866;DHT22;10593;48.398;10.698;2022-10-30T09:10:00;15.80;62.90
20866;DHT22;10593;48.398;10.698;2022-10-30T09:12:26;15.80;62.80
20866;DHT22;10593;48.398;10.698;2022-10-30T09:14:51;15.90;62.70
20866;DHT22;10593;48.398;10.698;2022-10-30T09:17:17;16.00;62.60
20866;DHT22;10593;48.398;10.698;2022-10-30T09:19:43;16.00;62.50
20866;DHT22;10593;48.398;10.698;2022-10-30T09:22:08;16.00;62.40
20866;DHT22;10593;48.398;10.698;2022-10-30T09:24:34;16.00;62.30
20866;DHT22;10593;48.398;10.698;2022-10-30T09:27:00;16.10;62.40
20866;DHT22;10593;48.398;10.698;2022-10-30T09:29:25;16.10;62.50
20866;DHT22;10593;48.398;10.698;2022-10-30T09:31:51;16.20;62.70
20866;DHT22;10593;48.398;10.698;2022-10-30T09:34:17;16.20;62.70
20866;DHT22;10593;48.398;10.698;2022-10-30T09:36:42;16.20;62.60
20866;DHT22;10593;48.398;10.698;2022-10-30T09:39:10;16.30;62.90
20866;DHT22;10593;48.398;10.698;2022-10-30T09:41:59;16.30;63.30
20866;DHT22;10593;48.398;10.698;2022-10-30T09:54:22;16.40;63.50
20866;DHT22;10593;48.398;10.698;2022-10-30T10:02:34;16.50;63.60
20866;DHT22;10593;48.398;10.698;2022-10-30T10:08:21;16.60;63.60
20866;DHT22;10593;48.398;10.698;2022-10-30T10:10:58;16.60;63.40
20866;DHT22;10593;48.398;10.698;2022-10-30T10:13:49;16.70;63.50
20866;DHT22;10593;48.398;10.698;2022-10-30T10:16:18;16.70;63.60
20866;DHT22;10593;48.398;10.698;2022-10-30T10:18:50;16.80;63.80
20866;DHT22;10593;48.398;10.698;2022-10-30T10:21:26;16.80;63.90
20866;DHT22;10593;48.398;10.698;2022-10-30T10:23:59;16.90;64.40
20866;DHT22;10593;48.398;10.698;2022-10-30T10:26:47;16.90;64.40
20866;DHT22;10593;48.398;10.698;2022-10-30T10:32:33;17.00;65.20
20866;DHT22;10593;48.398;10.698;2022-10-30T10:44:31;17.20;64.70
20866;DHT22;10593;48.398;10.698;2022-10-30T10:50:20;17.30;64.80
20866;DHT22;10593;48.398;10.698;2022-10-30T10:53:06;17.30;64.80
20866;DHT22;10593;48.398;10.698;2022-10-30T10:55:38;17.40;64.80
20866;DHT22;10593;48.398;10.698;2022-10-30T10:58:32;17.40;64.80
20866;DHT22;10593;48.398;10.698;2022-10-30T11:00:58;17.40;64.90
20866;DHT22;10593;48.398;10.698;2022-10-30T11:06:33;17.50;65.00
20866;DHT22;10593;48.398;10.698;2022-10-30T11:09:14;17.60;65.00
20866;DHT22;10593;48.398;10.698;2022-10-30T11:11:47;17.60;65.10
20866;DHT22;10593;48.398;10.698;2022-10-30T11:19:40;17.70;65.20
20866;DHT22;10593;48.398;10.698;2022-10-30T11:22:19;17.80;65.20
20866;DHT22;10593;48.398;10.698;2022-10-30T11:24:50;17.80;65.30
20866;DHT22;10593;48.398;10.698;2022-10-30T11:27:24;17.90;65.30
20866;DHT22;10593;48.398;10.698;2022-10-30T11:29:59;17.90;65.40
20866;DHT22;10593;48.398;10.698;2022-10-30T11:32:28;17.90;65.30
20866;DHT22;10593;48.398;10.698;2022-10-30T11:37:38;18.00;65.50
20866;DHT22;10593;48.398;10.698;2022-10-30T11:40:21;18.10;65.60
20866;DHT22;10593;48.398;10.698;2022-10-30T11:43:00;18.10;65.00
20866;DHT22;10593;48.398;10.698;2022-10-30T11:45:28;18.20;64.40
20866;DHT22;10593;48.398;10.698;2022-10-30T11:47:58;18.20;64.10
20866;DHT22;10593;48.398;10.698;2022-10-30T11:50:27;18.30;63.90
20866;DHT22;10593;48.398;10.698;2022-10-30T11:53:01;18.30;63.70
20866;DHT22;10593;48.398;10.698;2022-10-30T11:55:44;18.30;63.60
20866;DHT22;10593;48.398;10.698;2022-10-30T11:58:35;18.30;63.20
20866;DHT22;10593;48.398;10.698;2022-10-30T12:01:15;18.40;63.20
20866;DHT22;10593;48.398;10.698;2022-10-30T12:03:42;18.40;63.20
20866;DHT22;10593;48.398;10.698;2022-10-30T12:09:19;18.50;62.90
20866;DHT22;10593;48.398;10.698;2022-10-30T12:11:47;18.60;63.00
20866;DHT22;10593;48.398;10.698;2022-10-30T12:14:20;18.60;62.90
20866;DHT22;10593;48.398;10.698;2022-10-30T12:16:49;18.60;62.50
20866;DHT22;10593;48.398;10.698;2022-10-30T12:19:19;18.60;62.60
20866;DHT22;10593;48.398;10.698;2022-10-30T12:21:51;18.70;62.70
20866;DHT22;10593;48.398;10.698;2022-10-30T12:27:00;18.70;62.20
20866;DHT22;10593;48.398;10.698;2022-10-30T12:29:39;18.80;62.40
20866;DHT22;10593;48.398;10.698;2022-10-30T12:32:16;18.80;61.70
20866;DHT22;10593;48.398;10.698;2022-10-30T12:37:44;18.90;61.80
20866;DHT22;10593;48.398;10.698;2022-10-30T12:40:15;18.90;61.70
20866;DHT22;10593;48.398;10.698;2022-10-30T12:42:59;18.90;61.50
20866;DHT22;10593;48.398;10.698;2022-10-30T12:45:31;18.90;61.30
20866;DHT22;10593;48.398;10.698;2022-10-30T12:48:22;18.90;61.70
20866;DHT22;10593;48.398;10.698;2022-10-30T12:51:25;19.00;61.40
20866;DHT22;10593;48.398;10.698;2022-10-30T12:54:21;19.00;60.70
20866;DHT22;10593;48.398;10.698;2022-10-30T12:57:09;19.10;60.60
20866;DHT22;10593;48.398;10.698;2022-10-30T13:02:32;19.20;60.00
20866;DHT22;10593;48.398;10.698;2022-10-30T13:05:37;19.20;59.70
20866;DHT22;10593;48.398;10.698;2022-10-30T13:08:41;19.20;59.00
20866;DHT22;10593;48.398;10.698;2022-10-30T13:14:10;19.30;58.80
20866;DHT22;10593;48.398;10.698;2022-10-30T13:16:40;19.30;59.00
20866;DHT22;10593;48.398;10.698;2022-10-30T13:19:10;19.30;59.10
20866;DHT22;10593;48.398;10.698;2022-10-30T13:22:06;19.40;58.90
20866;DHT22;10593;48.398;10.698;2022-10-30T13:27:44;19.50;58.70
20866;DHT22;10593;48.398;10.698;2022-10-30T13:30:21;19.50;58.60
20866;DHT22;10593;48.398;10.698;2022-10-30T13:33:03;19.50;58.40
20866;DHT22;10593;48.398;10.698;2022-10-30T13:35:56;19.60;58.30
20866;DHT22;10593;48.398;10.698;2022-10-30T13:41:53;19.60;58.50
20866;DHT22;10593;48.398;10.698;2022-10-30T13:52:58;19.70;57.90
20866;DHT22;10593;48.398;10.698;2022-10-30T13:55:30;19.80;58.50
20866;DHT22;10593;48.398;10.698;2022-10-30T14:03:47;19.90;59.00
20866;DHT22;10593;48.398;10.698;2022-10-30T14:06:58;19.90;58.90
20866;DHT22;10593;48.398;10.698;2022-10-30T14:09:38;19.90;58.80
20866;DHT22;10593;48.398;10.698;2022-10-30T14:13:04;20.00;58.90
20866;DHT22;10593;48.398;10.698;2022-10-30T14:15:45;20.00;58.70
20866;DHT22;10593;48.398;10.698;2022-10-30T14:20:50;20.10;58.90
20866;DHT22;10593;48.398;10.698;2022-10-30T14:28:37;20.10;59.50
20866;DHT22;10593;48.398;10.698;2022-10-30T14:31:11;20.10;59.50
20866;DHT22;10593;48.398;10.698;2022-10-30T14:33:47;20.20;59.30
20866;DHT22;10593;48.398;10.698;2022-10-30T14:36:18;20.20;59.10
20866;DHT22;10593;48.398;10.698;2022-10-30T14:39:00;20.20;58.90
20866;DHT22;10593;48.398;10.698;2022-10-30T14:44:47;20.20;58.40
20866;DHT22;10593;48.398;10.698;2022-10-30T14:47:42;20.30;58.70
20866;DHT22;10593;48.398;10.698;2022-10-30T14:55:54;20.30;60.50
20866;DHT22;10593;48.398;10.698;2022-10-30T14:58:28;20.30;62.30
20866;DHT22;10593;48.398;10.698;2022-10-30T15:09:50;20.30;64.30
20866;DHT22;10593;48.398;10.698;2022-10-30T15:15:14;20.30;66.00
20866;DHT22;10593;48.398;10.698;2022-10-30T15:20:24;20.40;65.70
20866;DHT22;10593;48.398;10.698;2022-10-30T15:22:55;20.40;65.90
20866;DHT22;10593;48.398;10.698;2022-10-30T15:25:33;20.30;65.40
20866;DHT22;10593;48.398;10.698;2022-10-30T15:28:03;20.40;65.90
20866;DHT22;10593;48.398;10.698;2022-10-30T15:30:29;20.30;65.20
20866;DHT22;10593;48.398;10.698;2022-10-30T15:32:55;20.30;65.10
20866;DHT22;10593;48.398;10.698;2022-10-30T15:35:25;20.30;65.00
20866;DHT22;10593;48.398;10.698;2022-10-30T15:38:03;20.30;65.00
20866;DHT22;10593;48.398;10.698;2022-10-30T15:40:32;20.30;65.10
20866;DHT22;10593;48.398;10.698;2022-10-30T15:43:00;20.20;64.70
20866;DHT22;10593;48.398;10.698;2022-10-30T15:45:43;20.20;64.50
20866;DHT22;10593;48.398;10.698;2022-10-30T15:48:30;20.20;64.60
20866;DHT22;10593;48.398;10.698;2022-10-30T15:51:04;20.20;64.60
20866;DHT22;10593;48.398;10.698;2022-10-30T15:53:37;20.10;64.40
20866;DHT22;10593;48.398;10.698;2022-10-30T15:56:27;20.10;64.20
20866;DHT22;10593;48.398;10.698;2022-10-30T15:59:03;20.00;64.10
20866;DHT22;10593;48.398;10.698;2022-10-30T16:01:32;20.00;63.90
20866;DHT22;10593;48.398;10.698;2022-10-30T16:04:03;20.00;63.60
20866;DHT22;10593;48.398;10.698;2022-10-30T16:06:30;20.00;63.60
20866;DHT22;10593;48.398;10.698;2022-10-30T16:08:56;19.90;63.50
20866;DHT22;10593;48.398;10.698;2022-10-30T16:11:24;19.90;63.50
20866;DHT22;10593;48.398;10.698;2022-10-30T16:13:51;19.90;63.50
20866;DHT22;10593;48.398;10.698;2022-10-30T16:16:26;19.80;63.30
20866;DHT22;10593;48.398;10.698;2022-10-30T16:18:59;19.80;63.40
20866;DHT22;10593;48.398;10.698;2022-10-30T16:21:28;19.80;63.30
20866;DHT22;10593;48.398;10.698;2022-10-30T16:24:00;19.70;62.80
20866;DHT22;10593;48.398;10.698;2022-10-30T16:26:36;19.70;62.80
20866;DHT22;10593;48.398;10.698;2022-10-30T16:31:38;19.60;62.60
20866;DHT22;10593;48.398;10.698;2022-10-30T16:34:10;19.60;62.80
20866;DHT22;10593;48.398;10.698;2022-10-30T16:36:43;19.50;62.80
20866;DHT22;10593;48.398;10.698;2022-10-30T16:39:13;19.50;62.70
20866;DHT22;10593;48.398;10.698;2022-10-30T16:41:42;19.50;62.70
20866;DHT22;10593;48.398;10.698;2022-10-30T16:46:54;19.50;62.60
20866;DHT22;10593;48.398;10.698;2022-10-30T16:49:28;19.40;62.70
20866;DHT22;10593;48.398;10.698;2022-10-30T16:52:06;19.40;62.50
20866;DHT22;10593;48.398;10.698;2022-10-30T16:54:40;19.40;62.70
20866;DHT22;10593;48.398;10.698;2022-10-30T16:57:24;19.30;62.40
20866;DHT22;10593;48.398;10.698;2022-10-30T16:59:52;19.30;62.70
20866;DHT22;10593;48.398;10.698;2022-10-30T17:02:26;19.30;62.40
20866;DHT22;10593;48.398;10.698;2022-10-30T17:05:07;19.30;62.50
20866;DHT22;10593;48.398;10.698;2022-10-30T17:07:37;19.20;62.30
20866;DHT22;10593;48.398;10.698;2022-10-30T17:11:32;19.20;62.20
20866;DHT22;10593;48.398;10.698;2022-10-30T17:13:38;19.20;62.40
20866;DHT22;10593;48.398;10.698;2022-10-30T17:16:28;19.10;62.10
20866;DHT22;10593;48.398;10.698;2022-10-30T17:19:00;19.10;62.10
20866;DHT22;10593;48.398;10.698;2022-10-30T17:21:52;19.00;62.70
20866;DHT22;10593;48.398;10.698;2022-10-30T17:24:20;19.00;62.00
20866;DHT22;10593;48.398;10.698;2022-10-30T17:26:58;19.00;62.10
20866;DHT22;10593;48.398;10.698;2022-10-30T17:32:04;18.90;62.20
20866;DHT22;10593;48.398;10.698;2022-10-30T17:34:37;18.90;62.10
20866;DHT22;10593;48.398;10.698;2022-10-30T17:37:03;18.90;62.00
20866;DHT22;10593;48.398;10.698;2022-10-30T17:39:28;18.90;62.00
20866;DHT22;10593;48.398;10.698;2022-10-30T17:41:56;18.90;62.00
20866;DHT22;10593;48.398;10.698;2022-10-30T17:44:23;18.80;62.00
20866;DHT22;10593;48.398;10.698;2022-10-30T17:46:50;18.80;62.00
20866;DHT22;10593;48.398;10.698;2022-10-30T17:49:27;18.80;61.90
20866;DHT22;10593;48.398;10.698;2022-10-30T17:51:54;18.80;62.00
20866;DHT22;10593;48.398;10.698;2022-10-30T17:54:20;18.80;61.80
20866;DHT22;10593;48.398;10.698;2022-10-30T17:56:46;18.70;61.70
20866;DHT22;10593;48.398;10.698;2022-10-30T17:59:12;18.70;61.70